sensor_id;sensor_type;location;lat;lon;timestamp;P1;durP1;ratioP1;P2;durP2;ratioP2
68310;SDS011;55157;51.036;17.058;2023-06-24T16:48:39;177.40;;;25.08;;
68310;SDS011;55157;51.036;17.058;2023-06-24T16:51:05;14.43;;;4.72;;
68310;SDS011;55157;51.036;17.058;2023-06-24T16:53:31;11.43;;;5.20;;
68310;SDS011;55157;51.036;17.058;2023-06-24T16:55:56;7.68;;;4.72;;
68310;SDS011;55157;51.036;17.058;2023-06-24T16:58:21;5.27;;;4.77;;
68310;SDS011;55157;51.036;17.058;2023-06-24T17:00:47;7.30;;;5.25;;
68310;SDS011;55157;51.036;17.058;2023-06-24T17:03:12;5.80;;;5.20;;
68310;SDS011;55157;51.036;17.058;2023-06-24T17:05:39;5.68;;;5.00;;
68310;SDS011;55157;51.036;17.058;2023-06-24T17:08:04;5.53;;;4.70;;
68310;SDS011;55157;51.036;17.058;2023-06-24T17:10:30;10.70;;;4.93;;
68310;SDS011;55157;51.036;17.058;2023-06-24T17:12:55;7.43;;;5.32;;
68310;SDS011;55157;51.036;17.058;2023-06-24T17:15:20;5.38;;;4.40;;
68310;SDS011;55157;51.036;17.058;2023-06-24T17:17:45;7.07;;;4.65;;
68310;SDS011;55157;51.036;17.058;2023-06-24T17:20:11;7.53;;;5.43;;
68310;SDS011;55157;51.036;17.058;2023-06-24T17:22:37;7.45;;;5.28;;
68310;SDS011;55157;51.036;17.058;2023-06-24T17:25:03;6.70;;;5.22;;
68310;SDS011;55157;51.036;17.058;2023-06-24T17:27:28;10.82;;;5.45;;
68310;SDS011;55157;51.036;17.058;2023-06-24T17:29:57;11.43;;;5.18;;
68310;SDS011;55157;51.036;17.058;2023-06-24T17:32:22;11.48;;;5.05;;
68310;SDS011;55157;51.036;17.058;2023-06-24T17:34:47;9.32;;;6.03;;
68310;SDS011;55157;51.036;17.058;2023-06-24T17:37:12;8.60;;;5.80;;
68310;SDS011;55157;51.036;17.058;2023-06-24T17:39:39;8.25;;;5.30;;
68310;SDS011;55157;51.036;17.058;2023-06-24T17:42:04;9.05;;;5.63;;
68310;SDS011;55157;51.036;17.058;2023-06-24T17:44:30;8.43;;;5.38;;
68310;SDS011;55157;51.036;17.058;2023-06-24T17:46:55;9.27;;;5.55;;
68310;SDS011;55157;51.036;17.058;2023-06-24T17:49:20;7.15;;;5.68;;
68310;SDS011;55157;51.036;17.058;2023-06-24T17:51:45;8.30;;;5.03;;
68310;SDS011;55157;51.036;17.058;2023-06-24T17:54:11;7.38;;;6.50;;
68310;SDS011;55157;51.036;17.058;2023-06-24T17:56:37;9.13;;;5.20;;
68310;SDS011;55157;51.036;17.058;2023-06-24T17:59:03;6.00;;;5.40;;
68310;SDS011;55157;51.036;17.058;2023-06-24T18:01:28;7.15;;;5.30;;
68310;SDS011;55157;51.036;17.058;2023-06-24T18:03:54;6.15;;;5.55;;
68310;SDS011;55157;51.036;17.058;2023-06-24T18:06:19;8.47;;;5.83;;
68310;SDS011;55157;51.036;17.058;2023-06-24T18:08:44;8.90;;;6.10;;
68310;SDS011;55157;51.036;17.058;2023-06-24T18:11:09;8.27;;;4.90;;
68310;SDS011;55157;51.036;17.058;2023-06-24T18:13:36;6.68;;;5.63;;
68310;SDS011;55157;51.036;17.058;2023-06-24T18:16:01;8.23;;;5.80;;
68310;SDS011;55157;51.036;17.058;2023-06-24T18:18:26;8.02;;;5.95;;
68310;SDS011;55157;51.036;17.058;2023-06-24T18:20:52;9.13;;;5.80;;
68310;SDS011;55157;51.036;17.058;2023-06-24T18:23:17;6.25;;;5.65;;
68310;SDS011;55157;51.036;17.058;2023-06-24T18:25:42;6.95;;;5.50;;
68310;SDS011;55157;51.036;17.058;2023-06-24T18:28:07;9.65;;;6.40;;
68310;SDS011;55157;51.036;17.058;2023-06-24T18:30:34;7.20;;;6.00;;
68310;SDS011;55157;51.036;17.058;2023-06-24T18:32:59;13.38;;;6.20;;
68310;SDS011;55157;51.036;17.058;2023-06-24T18:35:25;9.65;;;6.57;;
68310;SDS011;55157;51.036;17.058;2023-06-24T18:37:50;6.93;;;6.13;;
68310;SDS011;55157;51.036;17.058;2023-06-24T18:40:15;9.15;;;7.25;;
68310;SDS011;55157;51.036;17.058;2023-06-24T18:42:41;7.13;;;6.43;;
68310;SDS011;55157;51.036;17.058;2023-06-24T18:45:06;7.32;;;6.47;;
68310;SDS011;55157;51.036;17.058;2023-06-24T18:47:33;9.95;;;6.95;;
68310;SDS011;55157;51.036;17.058;2023-06-24T18:49:59;7.82;;;6.47;;
68310;SDS011;55157;51.036;17.058;2023-06-24T18:52:25;7.70;;;6.90;;
68310;SDS011;55157;51.036;17.058;2023-06-24T18:54:50;8.90;;;6.57;;
68310;SDS011;55157;51.036;17.058;2023-06-24T18:57:15;8.45;;;6.65;;
68310;SDS011;55157;51.036;17.058;2023-06-24T18:59:41;8.50;;;6.80;;
68310;SDS011;55157;51.036;17.058;2023-06-24T19:02:07;10.80;;;6.43;;
68310;SDS011;55157;51.036;17.058;2023-06-24T19:04:38;9.52;;;7.30;;
68310;SDS011;55157;51.036;17.058;2023-06-24T19:07:03;7.90;;;6.40;;
68310;SDS011;55157;51.036;17.058;2023-06-24T19:09:28;12.88;;;7.03;;
68310;SDS011;55157;51.036;17.058;2023-06-24T19:11:53;8.75;;;7.03;;
68310;SDS011;55157;51.036;17.058;2023-06-24T19:14:19;11.15;;;7.75;;
68310;SDS011;55157;51.036;17.058;2023-06-24T19:16:44;9.35;;;7.68;;
68310;SDS011;55157;51.036;17.058;2023-06-24T19:19:09;8.60;;;7.17;;
68310;SDS011;55157;51.036;17.058;2023-06-24T19:21:36;8.63;;;7.20;;
68310;SDS011;55157;51.036;17.058;2023-06-24T19:24:01;8.52;;;7.15;;
68310;SDS011;55157;51.036;17.058;2023-06-24T19:26:26;9.43;;;7.57;;
68310;SDS011;55157;51.036;17.058;2023-06-24T19:28:52;17.63;;;8.40;;
68310;SDS011;55157;51.036;17.058;2023-06-24T19:31:17;9.93;;;7.87;;
68310;SDS011;55157;51.036;17.058;2023-06-24T19:33:42;11.52;;;8.07;;
68310;SDS011;55157;51.036;17.058;2023-06-24T19:36:07;9.85;;;8.35;;
68310;SDS011;55157;51.036;17.058;2023-06-24T19:38:34;9.25;;;7.68;;
68310;SDS011;55157;51.036;17.058;2023-06-24T19:40:59;10.18;;;8.00;;
68310;SDS011;55157;51.036;17.058;2023-06-24T19:43:25;10.65;;;8.15;;
68310;SDS011;55157;51.036;17.058;2023-06-24T19:45:50;12.95;;;8.75;;
68310;SDS011;55157;51.036;17.058;2023-06-24T19:48:15;16.48;;;8.25;;
68310;SDS011;55157;51.036;17.058;2023-06-24T19:50:40;10.57;;;9.15;;
68310;SDS011;55157;51.036;17.058;2023-06-24T19:53:06;14.57;;;8.05;;
68310;SDS011;55157;51.036;17.058;2023-06-24T19:55:32;9.68;;;8.07;;
68310;SDS011;55157;51.036;17.058;2023-06-24T19:57:58;9.48;;;8.13;;
68310;SDS011;55157;51.036;17.058;2023-06-24T20:00:23;12.17;;;8.00;;
68310;SDS011;55157;51.036;17.058;2023-06-24T20:02:48;9.95;;;8.18;;
68310;SDS011;55157;51.036;17.058;2023-06-24T20:05:13;10.95;;;8.85;;
68310;SDS011;55157;51.036;17.058;2023-06-24T20:07:39;15.27;;;8.07;;
68310;SDS011;55157;51.036;17.058;2023-06-24T20:10:04;10.80;;;8.32;;
68310;SDS011;55157;51.036;17.058;2023-06-24T20:12:31;9.95;;;8.50;;
68310;SDS011;55157;51.036;17.058;2023-06-24T20:14:56;13.80;;;7.88;;
68310;SDS011;55157;51.036;17.058;2023-06-24T20:17:21;10.52;;;8.25;;
68310;SDS011;55157;51.036;17.058;2023-06-24T20:19:47;10.07;;;8.30;;
68310;SDS011;55157;51.036;17.058;2023-06-24T20:22:12;9.63;;;7.93;;
68310;SDS011;55157;51.036;17.058;2023-06-24T20:24:37;11.57;;;7.82;;
68310;SDS011;55157;51.036;17.058;2023-06-24T20:27:03;11.55;;;7.85;;
68310;SDS011;55157;51.036;17.058;2023-06-24T20:29:29;10.05;;;7.55;;
68310;SDS011;55157;51.036;17.058;2023-06-24T20:31:55;9.48;;;7.57;;
68310;SDS011;55157;51.036;17.058;2023-06-24T20:34:20;10.48;;;8.05;;
68310;SDS011;55157;51.036;17.058;2023-06-24T20:36:46;13.65;;;8.20;;
68310;SDS011;55157;51.036;17.058;2023-06-24T20:39:11;9.90;;;7.55;;
68310;SDS011;55157;51.036;17.058;2023-06-24T20:41:36;11.02;;;7.80;;
68310;SDS011;55157;51.036;17.058;2023-06-24T20:44:01;12.32;;;8.68;;
68310;SDS011;55157;51.036;17.058;2023-06-24T20:46:28;9.15;;;8.15;;
68310;SDS011;55157;51.036;17.058;2023-06-24T20:48:53;9.73;;;8.48;;
68310;SDS011;55157;51.036;17.058;2023-06-24T20:51:19;12.07;;;8.30;;
68310;SDS011;55157;51.036;17.058;2023-06-24T20:53:44;9.85;;;7.95;;
68310;SDS011;55157;51.036;17.058;2023-06-24T20:56:09;9.65;;;8.02;;
68310;SDS011;55157;51.036;17.058;2023-06-24T20:58:35;16.27;;;9.13;;
68310;SDS011;55157;51.036;17.058;2023-06-24T21:01:00;15.85;;;9.07;;
68310;SDS011;55157;51.036;17.058;2023-06-24T21:03:26;12.65;;;9.43;;
68310;SDS011;55157;51.036;17.058;2023-06-24T21:05:52;9.85;;;8.70;;
68310;SDS011;55157;51.036;17.058;2023-06-24T21:08:17;13.52;;;10.45;;
68310;SDS011;55157;51.036;17.058;2023-06-24T21:10:42;13.07;;;9.00;;
68310;SDS011;55157;51.036;17.058;2023-06-24T21:13:07;13.32;;;8.85;;
68310;SDS011;55157;51.036;17.058;2023-06-24T21:15:33;14.48;;;9.40;;
68310;SDS011;55157;51.036;17.058;2023-06-24T21:17:58;15.13;;;8.25;;
68310;SDS011;55157;51.036;17.058;2023-06-24T21:20:25;15.68;;;7.90;;
68310;SDS011;55157;51.036;17.058;2023-06-24T21:22:50;8.93;;;8.02;;
68310;SDS011;55157;51.036;17.058;2023-06-24T21:25:15;15.98;;;8.02;;
68310;SDS011;55157;51.036;17.058;2023-06-24T21:27:40;12.10;;;7.78;;
68310;SDS011;55157;51.036;17.058;2023-06-24T21:30:06;9.55;;;8.10;;
68310;SDS011;55157;51.036;17.058;2023-06-24T21:32:31;9.70;;;8.23;;
68310;SDS011;55157;51.036;17.058;2023-06-24T21:34:57;10.10;;;8.32;;
68310;SDS011;55157;51.036;17.058;2023-06-24T21:37:23;10.07;;;7.55;;
68310;SDS011;55157;51.036;17.058;2023-06-24T21:39:49;10.13;;;8.35;;
68310;SDS011;55157;51.036;17.058;2023-06-24T21:42:14;10.68;;;7.95;;
68310;SDS011;55157;51.036;17.058;2023-06-24T21:44:39;10.95;;;7.72;;
68310;SDS011;55157;51.036;17.058;2023-06-24T21:47:04;18.23;;;8.73;;
68310;SDS011;55157;51.036;17.058;2023-06-24T21:49:30;10.30;;;7.93;;
68310;SDS011;55157;51.036;17.058;2023-06-24T21:51:55;10.02;;;7.88;;
68310;SDS011;55157;51.036;17.058;2023-06-24T21:54:24;13.98;;;7.82;;
68310;SDS011;55157;51.036;17.058;2023-06-24T21:56:50;9.98;;;7.53;;
68310;SDS011;55157;51.036;17.058;2023-06-24T21:59:15;11.18;;;8.30;;
68310;SDS011;55157;51.036;17.058;2023-06-24T22:01:40;12.18;;;8.32;;
68310;SDS011;55157;51.036;17.058;2023-06-24T22:04:05;11.70;;;8.65;;
68310;SDS011;55157;51.036;17.058;2023-06-24T22:06:31;10.13;;;8.30;;
68310;SDS011;55157;51.036;17.058;2023-06-24T22:08:56;12.10;;;8.63;;
68310;SDS011;55157;51.036;17.058;2023-06-24T22:11:23;9.65;;;7.95;;
68310;SDS011;55157;51.036;17.058;2023-06-24T22:13:48;17.98;;;8.73;;
68310;SDS011;55157;51.036;17.058;2023-06-24T22:16:14;13.77;;;8.30;;
68310;SDS011;55157;51.036;17.058;2023-06-24T22:18:39;13.35;;;8.40;;
68310;SDS011;55157;51.036;17.058;2023-06-24T22:21:04;11.43;;;7.47;;
68310;SDS011;55157;51.036;17.058;2023-06-24T22:23:30;9.40;;;7.75;;
68310;SDS011;55157;51.036;17.058;2023-06-24T22:25:55;12.57;;;8.98;;
68310;SDS011;55157;51.036;17.058;2023-06-24T22:28:22;8.98;;;7.78;;
68310;SDS011;55157;51.036;17.058;2023-06-24T22:30:47;14.20;;;8.82;;
68310;SDS011;55157;51.036;17.058;2023-06-24T22:33:12;9.95;;;7.93;;
68310;SDS011;55157;51.036;17.058;2023-06-24T22:35:37;10.02;;;9.02;;
68310;SDS011;55157;51.036;17.058;2023-06-24T22:38:03;11.32;;;8.13;;
68310;SDS011;55157;51.036;17.058;2023-06-24T22:40:28;12.75;;;8.85;;
68310;SDS011;55157;51.036;17.058;2023-06-24T22:42:53;11.57;;;8.93;;
68310;SDS011;55157;51.036;17.058;2023-06-24T22:45:20;12.27;;;9.30;;
68310;SDS011;55157;51.036;17.058;2023-06-24T22:47:45;11.23;;;9.38;;
68310;SDS011;55157;51.036;17.058;2023-06-24T22:50:10;11.27;;;8.65;;
68310;SDS011;55157;51.036;17.058;2023-06-24T22:52:36;14.43;;;9.45;;
68310;SDS011;55157;51.036;17.058;2023-06-24T22:55:01;9.80;;;8.57;;
68310;SDS011;55157;51.036;17.058;2023-06-24T22:57:26;9.38;;;8.30;;
68310;SDS011;55157;51.036;17.058;2023-06-24T22:59:51;12.52;;;8.85;;
68310;SDS011;55157;51.036;17.058;2023-06-24T23:02:18;14.13;;;9.27;;
68310;SDS011;55157;51.036;17.058;2023-06-24T23:04:44;11.45;;;9.38;;
68310;SDS011;55157;51.036;17.058;2023-06-24T23:07:09;11.80;;;7.95;;
68310;SDS011;55157;51.036;17.058;2023-06-24T23:09:35;9.60;;;8.55;;
68310;SDS011;55157;51.036;17.058;2023-06-24T23:12:01;15.25;;;8.35;;
68310;SDS011;55157;51.036;17.058;2023-06-24T23:14:26;12.57;;;9.15;;
68310;SDS011;55157;51.036;17.058;2023-06-24T23:16:52;10.93;;;9.38;;
68310;SDS011;55157;51.036;17.058;2023-06-24T23:19:19;10.65;;;8.45;;
68310;SDS011;55157;51.036;17.058;2023-06-24T23:21:45;12.23;;;8.63;;
68310;SDS011;55157;51.036;17.058;2023-06-24T23:24:10;14.80;;;9.48;;
68310;SDS011;55157;51.036;17.058;2023-06-24T23:26:36;12.82;;;9.15;;
68310;SDS011;55157;51.036;17.058;2023-06-24T23:29:03;11.65;;;8.75;;
68310;SDS011;55157;51.036;17.058;2023-06-24T23:31:31;11.38;;;8.63;;
68310;SDS011;55157;51.036;17.058;2023-06-24T23:33:57;10.25;;;8.93;;
68310;SDS011;55157;51.036;17.058;2023-06-24T23:36:24;11.88;;;8.68;;
68310;SDS011;55157;51.036;17.058;2023-06-24T23:38:49;9.20;;;7.90;;
68310;SDS011;55157;51.036;17.058;2023-06-24T23:41:14;11.65;;;9.25;;
68310;SDS011;55157;51.036;17.058;2023-06-24T23:43:40;13.57;;;9.50;;
68310;SDS011;55157;51.036;17.058;2023-06-24T23:46:06;19.50;;;9.77;;
68310;SDS011;55157;51.036;17.058;2023-06-24T23:48:31;17.40;;;9.57;;
68310;SDS011;55157;51.036;17.058;2023-06-24T23:50:56;13.10;;;10.00;;
68310;SDS011;55157;51.036;17.058;2023-06-24T23:53:23;12.48;;;9.63;;
68310;SDS011;55157;51.036;17.058;2023-06-24T23:55:48;16.98;;;10.60;;
68310;SDS011;55157;51.036;17.058;2023-06-24T23:58:13;14.30;;;9.85;;
